createdAt,value
2023-02-05T00:02:12.686Z,4.50
2023-02-05T00:04:40.372Z,4.50
2023-02-05T00:07:07.861Z,4.50
2023-02-05T00:09:36.899Z,4.50
2023-02-05T00:12:04.663Z,4.40
2023-02-05T00:14:32.164Z,4.40
2023-02-05T00:16:59.620Z,4.50
2023-02-05T00:19:27.171Z,4.40
2023-02-05T00:21:56.903Z,4.40
2023-02-05T00:24:24.412Z,4.40
2023-02-05T00:26:51.896Z,4.40
2023-02-05T00:29:19.373Z,4.40
2023-02-05T00:31:49.652Z,4.40
2023-02-05T00:34:17.383Z,4.50
2023-02-05T00:36:45.226Z,4.40
2023-02-05T00:39:14.258Z,4.50
2023-02-05T00:41:41.834Z,4.50
2023-02-05T00:44:09.392Z,4.50
2023-02-05T00:46:36.989Z,4.50
2023-02-05T00:49:04.611Z,4.50
2023-02-05T00:51:32.192Z,4.50
2023-02-05T00:53:59.718Z,4.50
2023-02-05T00:56:27.178Z,4.50
2023-02-05T00:58:54.768Z,4.60
2023-02-05T01:01:22.411Z,4.60
2023-02-05T01:03:49.968Z,4.60
2023-02-05T01:06:17.618Z,4.60
2023-02-05T01:08:45.179Z,4.60
2023-02-05T01:11:12.768Z,4.50
2023-02-05T01:13:40.716Z,4.50
2023-02-05T01:16:10.423Z,4.50
2023-02-05T01:18:38.692Z,4.40
2023-02-05T01:21:06.360Z,4.40
2023-02-05T01:23:33.857Z,4.40
2023-02-05T01:26:01.585Z,4.40
2023-02-05T01:28:29.147Z,4.40
2023-02-05T01:30:56.648Z,4.40
2023-02-05T01:33:24.192Z,4.30
2023-02-05T01:35:51.644Z,4.30
2023-02-05T01:38:19.193Z,4.30
2023-02-05T01:40:46.714Z,4.30
2023-02-05T01:43:17.628Z,4.30
2023-02-05T01:46:07.854Z,4.20
2023-02-05T01:48:44.408Z,4.30
2023-02-05T01:51:15.560Z,4.20
2023-02-05T01:53:46.114Z,4.20
2023-02-05T01:56:19.307Z,4.10
2023-02-05T01:59:02.698Z,4.10
2023-02-05T02:01:30.820Z,4.10
2023-02-05T02:04:04.546Z,4.00
2023-02-05T02:06:36.276Z,4.00
2023-02-05T02:09:06.397Z,4.00
2023-02-05T02:11:37.851Z,4.00
2023-02-05T02:14:08.480Z,4.00
2023-02-05T02:16:37.782Z,4.00
2023-02-05T02:19:12.444Z,4.00
2023-02-05T02:21:48.969Z,4.00
2023-02-05T02:24:34.871Z,4.00
2023-02-05T02:27:35.499Z,4.00
2023-02-05T02:30:26.179Z,4.00
2023-02-05T02:32:53.770Z,4.10
2023-02-05T02:35:34.536Z,4.10
2023-02-05T02:38:10.897Z,4.10
2023-02-05T02:40:46.789Z,4.30
2023-02-05T02:43:25.211Z,4.30
2023-02-05T02:46:06.751Z,4.30
2023-02-05T02:48:38.043Z,4.40
2023-02-05T02:51:08.524Z,4.40
2023-02-05T02:53:41.726Z,4.40
2023-02-05T02:56:12.433Z,4.40
2023-02-05T02:58:50.042Z,4.40
2023-02-05T03:01:23.597Z,4.40
2023-02-05T03:04:02.812Z,4.40
2023-02-05T03:06:31.783Z,4.50
2023-02-05T03:09:07.057Z,4.40
2023-02-05T03:11:35.010Z,4.40
2023-02-05T03:14:03.308Z,4.40
2023-02-05T03:16:35.317Z,4.40
2023-02-05T03:19:05.565Z,4.40
2023-02-05T03:21:45.637Z,4.40
2023-02-05T03:24:13.715Z,4.40
2023-02-05T03:26:42.193Z,4.30
2023-02-05T03:29:30.640Z,4.30
2023-02-05T03:32:03.545Z,4.20
2023-02-05T03:35:16.097Z,4.20
2023-02-05T03:38:08.949Z,4.10
2023-02-05T03:40:50.579Z,4.00
2023-02-05T03:43:25.680Z,3.90
2023-02-05T03:46:08.748Z,3.80
2023-02-05T03:49:21.613Z,3.70
2023-02-05T03:52:09.782Z,3.60
2023-02-05T03:54:56.723Z,3.60
2023-02-05T03:58:04.991Z,3.60
2023-02-05T04:00:33.722Z,3.50
2023-02-05T04:03:02.619Z,3.40
2023-02-05T04:05:33.260Z,3.40
2023-02-05T04:08:03.824Z,3.40
2023-02-05T04:10:37.459Z,3.40
2023-02-05T04:13:05.028Z,3.30
2023-02-05T04:15:34.693Z,3.30
2023-02-05T04:18:05.259Z,3.30
2023-02-05T04:20:32.734Z,3.30
2023-02-05T04:23:00.920Z,3.30
2023-02-05T04:25:31.112Z,3.40
2023-02-05T04:28:01.402Z,3.40
2023-02-05T04:30:30.162Z,3.50
2023-02-05T04:32:57.765Z,3.50
2023-02-05T04:35:25.794Z,3.50
2023-02-05T04:37:53.316Z,3.50
2023-02-05T04:40:22.781Z,3.60
2023-02-05T04:42:50.237Z,3.60
2023-02-05T04:45:17.773Z,3.60
2023-02-05T04:47:45.251Z,3.70
2023-02-05T04:50:12.791Z,3.70
2023-02-05T04:52:40.271Z,3.70
2023-02-05T04:55:08.047Z,3.60
2023-02-05T04:57:35.594Z,3.60
2023-02-05T05:00:03.765Z,3.60
2023-02-05T05:02:31.816Z,3.50
2023-02-05T05:04:59.345Z,3.50
2023-02-05T05:07:29.421Z,3.50
2023-02-05T05:09:56.864Z,3.60
2023-02-05T05:12:24.306Z,3.60
2023-02-05T05:14:52.814Z,3.60
2023-02-05T05:17:20.290Z,3.60
2023-02-05T05:19:47.750Z,3.60
2023-02-05T05:22:15.207Z,3.60
2023-02-05T05:24:42.702Z,3.60
2023-02-05T05:27:10.177Z,3.60
2023-02-05T05:29:38.033Z,3.60
2023-02-05T05:32:05.611Z,3.60
2023-02-05T05:34:33.073Z,3.60
2023-02-05T05:37:00.636Z,3.60
2023-02-05T05:39:46.432Z,3.60
2023-02-05T05:42:32.857Z,3.60
2023-02-05T05:45:00.361Z,3.70
2023-02-05T05:47:27.814Z,3.70
2023-02-05T05:49:55.377Z,3.80
2023-02-05T05:52:22.843Z,3.90
2023-02-05T05:54:50.375Z,3.90
2023-02-05T05:57:17.794Z,4.00
2023-02-05T05:59:46.495Z,4.10
2023-02-05T06:02:14.016Z,4.10
2023-02-05T06:04:41.545Z,4.20
2023-02-05T06:07:09.077Z,4.20
2023-02-05T06:09:36.615Z,4.20
2023-02-05T06:12:05.192Z,4.40
2023-02-05T06:14:32.794Z,4.40
2023-02-05T06:17:00.258Z,4.50
2023-02-05T06:19:27.926Z,4.60
2023-02-05T06:21:55.374Z,4.70
2023-02-05T06:24:22.896Z,4.80
2023-02-05T06:26:50.324Z,4.70
2023-02-05T06:29:17.780Z,4.80
2023-02-05T06:31:45.291Z,4.80
2023-02-05T06:34:12.878Z,4.80
2023-02-05T06:36:40.316Z,4.80
2023-02-05T06:39:07.861Z,4.80
2023-02-05T06:41:35.332Z,4.80
2023-02-05T06:44:03.970Z,4.80
2023-02-05T06:46:31.503Z,4.70
2023-02-05T06:48:59.044Z,4.70
2023-02-05T06:51:27.305Z,4.60
2023-02-05T06:53:57.305Z,4.50
2023-02-05T06:56:24.911Z,4.40
2023-02-05T06:58:52.388Z,4.40
2023-02-05T07:01:20.032Z,4.40
2023-02-05T07:03:48.607Z,4.30
2023-02-05T07:06:16.198Z,4.30
2023-02-05T07:08:43.651Z,4.20
2023-02-05T07:11:11.177Z,4.30
2023-02-05T07:13:38.621Z,4.20
2023-02-05T07:16:06.656Z,4.20
2023-02-05T07:18:34.666Z,4.10
2023-02-05T07:21:09.811Z,4.00
2023-02-05T07:23:37.613Z,4.00
2023-02-05T07:26:13.439Z,4.00
2023-02-05T07:28:41.608Z,4.00
2023-02-05T07:31:12.509Z,3.90
2023-02-05T07:33:40.195Z,3.80
2023-02-05T07:36:09.920Z,3.80
2023-02-05T07:38:38.218Z,3.80
2023-02-05T07:41:07.329Z,3.80
2023-02-05T07:43:35.657Z,3.80
2023-02-05T07:46:06.733Z,3.80
2023-02-05T07:48:34.702Z,3.80
2023-02-05T07:51:02.776Z,3.70
2023-02-05T07:53:30.442Z,3.70
2023-02-05T07:56:01.816Z,3.60
2023-02-05T07:58:30.520Z,3.60
2023-02-05T08:01:02.737Z,3.50
2023-02-05T08:03:31.070Z,3.50
2023-02-05T08:05:58.878Z,3.40
2023-02-05T08:08:26.403Z,3.40
2023-02-05T08:11:05.538Z,3.30
2023-02-05T08:13:33.696Z,3.20
2023-02-05T08:16:08.072Z,3.20
2023-02-05T08:18:35.985Z,3.30
2023-02-05T08:21:03.644Z,3.30
2023-02-05T08:23:31.334Z,3.20
2023-02-05T08:26:00.145Z,3.20
2023-02-05T08:28:29.249Z,3.30
2023-02-05T08:30:57.007Z,3.30
2023-02-05T08:33:24.718Z,3.40
2023-02-05T08:35:52.430Z,3.40
2023-02-05T08:38:19.951Z,3.40
2023-02-05T08:40:47.396Z,3.50
2023-02-05T08:43:14.919Z,3.50
2023-02-05T08:45:47.891Z,3.60
2023-02-05T08:48:15.894Z,3.50
2023-02-05T08:50:46.243Z,3.50
2023-02-05T08:53:13.782Z,3.50
2023-02-05T08:55:41.306Z,3.40
2023-02-05T08:58:08.812Z,3.40
2023-02-05T09:00:39.038Z,3.40
2023-02-05T09:03:08.824Z,3.30
2023-02-05T09:05:36.424Z,3.40
2023-02-05T09:08:04.022Z,3.40
2023-02-05T09:10:31.507Z,3.50
2023-02-05T09:12:58.978Z,3.60
2023-02-05T09:15:26.663Z,3.70
2023-02-05T09:17:54.158Z,3.80
2023-02-05T09:20:21.662Z,3.90
2023-02-05T09:22:50.405Z,3.90
2023-02-05T09:25:18.001Z,4.00
2023-02-05T09:27:45.722Z,4.10
2023-02-05T09:30:13.819Z,4.10
2023-02-05T09:32:41.320Z,4.20
2023-02-05T09:35:08.965Z,4.20
2023-02-05T09:37:36.558Z,4.30
2023-02-05T09:40:21.472Z,4.40
2023-02-05T09:43:12.404Z,4.40
2023-02-05T09:46:00.991Z,4.40
2023-02-05T09:48:51.357Z,4.50
2023-02-05T09:51:23.302Z,4.50
2023-02-05T09:53:57.825Z,4.60
2023-02-05T09:56:27.556Z,4.60
2023-02-05T09:58:57.354Z,4.60
2023-02-05T10:01:46.195Z,4.60
2023-02-05T10:04:14.935Z,4.70
2023-02-05T10:07:06.791Z,4.80
2023-02-05T10:09:49.096Z,4.80
2023-02-05T10:12:36.149Z,4.80
2023-02-05T10:15:25.194Z,4.80
2023-02-05T10:18:15.049Z,4.90
2023-02-05T10:21:18.253Z,5.10
2023-02-05T10:23:51.658Z,5.20
2023-02-05T10:26:21.386Z,5.20
2023-02-05T10:28:57.978Z,5.30
2023-02-05T10:31:39.539Z,5.30
2023-02-05T10:34:25.542Z,5.40
2023-02-05T10:36:54.453Z,5.40
2023-02-05T10:39:25.782Z,5.50
2023-02-05T10:42:10.362Z,5.60
2023-02-05T10:44:45.130Z,5.60
2023-02-05T10:47:40.298Z,5.70
2023-02-05T10:50:15.377Z,5.70
2023-02-05T10:52:42.929Z,5.70
2023-02-05T10:55:14.145Z,5.70
2023-02-05T10:57:41.708Z,5.70
2023-02-05T11:00:21.370Z,5.70
2023-02-05T11:02:55.117Z,5.80
2023-02-05T11:05:37.164Z,5.80
2023-02-05T11:08:04.908Z,5.80
2023-02-05T11:10:35.821Z,5.80
2023-02-05T11:13:16.965Z,5.80
2023-02-05T11:15:56.660Z,5.80
2023-02-05T11:18:55.087Z,5.90
2023-02-05T11:21:22.651Z,5.90
2023-02-05T11:23:57.792Z,5.90
2023-02-05T11:26:28.626Z,5.90
2023-02-05T11:28:58.418Z,5.90
2023-02-05T11:31:28.123Z,6.00
2023-02-05T11:34:13.727Z,6.00
2023-02-05T11:36:53.314Z,6.00
2023-02-05T11:39:38.083Z,6.10
2023-02-05T11:42:20.026Z,6.10
2023-02-05T11:45:00.597Z,6.10
2023-02-05T11:47:34.341Z,6.10
2023-02-05T11:50:04.456Z,6.10
2023-02-05T11:52:37.399Z,6.40
2023-02-05T11:55:06.206Z,6.70
2023-02-05T11:57:36.122Z,6.80
2023-02-05T12:00:09.512Z,7.10
2023-02-05T12:02:38.616Z,7.20
2023-02-05T12:05:12.382Z,7.30
2023-02-05T12:07:57.948Z,7.80
2023-02-05T12:10:32.327Z,7.30
2023-02-05T12:13:06.354Z,7.30
2023-02-05T12:15:59.041Z,7.30
2023-02-05T12:18:45.139Z,7.30
2023-02-05T12:21:34.064Z,7.40
2023-02-05T12:24:34.632Z,7.30
2023-02-05T12:27:14.883Z,7.20
2023-02-05T12:29:51.214Z,7.20
2023-02-05T12:32:43.937Z,7.10
2023-02-05T12:35:24.116Z,7.10
2023-02-05T12:38:31.590Z,7.10
2023-02-05T12:41:28.636Z,7.00
2023-02-05T12:44:24.957Z,5.50
2023-02-05T12:47:23.316Z,6.90
2023-02-05T12:50:22.875Z,7.00
2023-02-05T12:53:09.978Z,7.00
2023-02-05T12:55:54.268Z,7.00
2023-02-05T12:58:23.754Z,7.20
2023-02-05T13:00:57.335Z,7.20
2023-02-05T13:03:55.309Z,7.20
2023-02-05T13:06:37.680Z,7.10
2023-02-05T13:09:20.417Z,7.10
2023-02-05T13:12:05.156Z,7.00
2023-02-05T13:14:40.362Z,7.00
2023-02-05T13:17:26.245Z,7.00
2023-02-05T13:20:01.943Z,7.00
2023-02-05T13:22:58.867Z,7.10
2023-02-05T13:25:54.417Z,7.20
2023-02-05T13:28:42.296Z,7.20
2023-02-05T13:31:18.739Z,7.30
2023-02-05T13:33:47.963Z,7.30
2023-02-05T13:36:47.339Z,7.40
2023-02-05T13:39:37.787Z,7.30
2023-02-05T13:42:28.675Z,7.40
2023-02-05T13:45:30.225Z,7.40
2023-02-05T13:48:35.018Z,7.40
2023-02-05T13:51:32.460Z,7.30
2023-02-05T13:54:18.163Z,7.20
2023-02-05T13:57:02.694Z,7.20
2023-02-05T13:59:38.011Z,7.20
2023-02-05T14:02:33.536Z,7.10
2023-02-05T14:05:02.836Z,7.10
2023-02-05T14:07:45.926Z,7.10
2023-02-05T14:10:33.631Z,7.10
2023-02-05T14:13:22.524Z,7.00
2023-02-05T14:15:51.340Z,7.10
2023-02-05T14:19:05.375Z,7.10
2023-02-05T14:21:32.809Z,7.00
2023-02-05T14:24:40.043Z,7.00
2023-02-05T14:27:30.490Z,7.00
2023-02-05T14:30:18.288Z,7.00
2023-02-05T14:32:45.771Z,6.90
2023-02-05T14:35:40.172Z,6.90
2023-02-05T14:38:23.878Z,6.90
2023-02-05T14:41:20.708Z,6.80
2023-02-05T14:43:54.032Z,6.80
2023-02-05T14:46:33.598Z,6.70
2023-02-05T14:49:05.327Z,6.70
2023-02-05T14:51:40.640Z,6.70
2023-02-05T14:54:23.997Z,6.70
2023-02-05T14:56:54.355Z,6.70
2023-02-05T14:59:58.331Z,6.70
2023-02-05T15:03:03.533Z,6.70
2023-02-05T15:05:41.074Z,6.70
2023-02-05T15:08:20.276Z,6.70
2023-02-05T15:10:47.761Z,6.70
2023-02-05T15:13:20.033Z,6.60
2023-02-05T15:16:16.720Z,6.70
2023-02-05T15:18:59.059Z,6.60
2023-02-05T15:21:41.800Z,6.60
2023-02-05T15:24:23.852Z,6.60
2023-02-05T15:27:14.537Z,6.60
2023-02-05T15:29:48.597Z,6.60
2023-02-05T15:32:22.670Z,6.60
2023-02-05T15:34:56.589Z,6.50
2023-02-05T15:37:27.052Z,6.50
2023-02-05T15:40:10.802Z,6.50
2023-02-05T15:42:41.779Z,6.40
2023-02-05T15:45:24.541Z,6.40
2023-02-05T15:48:10.289Z,6.40
2023-02-05T15:50:43.700Z,6.40
2023-02-05T15:53:24.648Z,6.40
2023-02-05T15:55:52.645Z,6.40
2023-02-05T15:58:24.184Z,6.40
2023-02-05T16:00:53.695Z,6.40
2023-02-05T16:03:33.446Z,6.40
2023-02-05T16:06:01.756Z,6.40
2023-02-05T16:08:29.408Z,6.40
2023-02-05T16:11:01.819Z,6.40
2023-02-05T16:13:30.223Z,6.40
2023-02-05T16:16:09.401Z,6.40
2023-02-05T16:18:37.010Z,6.40
2023-02-05T16:21:14.010Z,6.30
2023-02-05T16:23:49.224Z,6.20
2023-02-05T16:26:29.373Z,6.30
2023-02-05T16:29:04.061Z,6.20
2023-02-05T16:31:33.988Z,6.30
2023-02-05T16:34:08.380Z,6.30
2023-02-05T16:36:42.286Z,6.30
2023-02-05T16:39:34.159Z,6.30
2023-02-05T16:42:29.274Z,6.20
2023-02-05T16:45:18.623Z,6.30
2023-02-05T16:48:25.568Z,6.20
2023-02-05T16:50:53.770Z,6.20
2023-02-05T16:53:26.977Z,6.20
2023-02-05T16:56:03.151Z,6.30
2023-02-05T16:58:43.523Z,6.40
2023-02-05T17:01:11.256Z,6.50
2023-02-05T17:03:41.309Z,6.50
2023-02-05T17:06:14.983Z,6.60
2023-02-05T17:08:46.715Z,6.70
2023-02-05T17:11:37.468Z,6.80
2023-02-05T17:14:23.522Z,6.80
2023-02-05T17:17:03.310Z,6.80
2023-02-05T17:19:33.789Z,6.80
2023-02-05T17:22:21.662Z,6.80
2023-02-05T17:24:49.989Z,6.80
2023-02-05T17:27:36.844Z,6.80
2023-02-05T17:30:10.604Z,6.90
2023-02-05T17:32:38.238Z,6.90
2023-02-05T17:35:13.809Z,6.90
2023-02-05T17:37:41.252Z,6.90
2023-02-05T17:40:12.867Z,6.90
2023-02-05T17:42:40.937Z,6.90
2023-02-05T17:45:22.647Z,6.90
2023-02-05T17:47:50.325Z,6.90
2023-02-05T17:50:18.364Z,6.90
2023-02-05T17:52:46.410Z,6.90
2023-02-05T17:55:16.186Z,7.00
2023-02-05T17:57:44.667Z,7.00
2023-02-05T18:00:26.854Z,7.10
2023-02-05T18:02:54.980Z,7.10
2023-02-05T18:05:23.169Z,7.10
2023-02-05T18:07:52.064Z,7.10
2023-02-05T18:10:23.327Z,7.10
2023-02-05T18:12:52.012Z,7.10
2023-02-05T18:15:19.562Z,7.10
2023-02-05T18:17:47.216Z,7.10
2023-02-05T18:20:16.112Z,7.10
2023-02-05T18:22:43.676Z,7.10
2023-02-05T18:25:11.342Z,7.10
2023-02-05T18:27:39.000Z,7.00
2023-02-05T18:30:07.390Z,7.00
2023-02-05T18:32:34.926Z,7.00
2023-02-05T18:35:02.439Z,7.00
2023-02-05T18:37:30.090Z,6.90
2023-02-05T18:39:57.573Z,6.90
2023-02-05T18:42:25.010Z,6.90
2023-02-05T18:44:52.660Z,6.90
2023-02-05T18:47:20.278Z,6.80
2023-02-05T18:49:47.884Z,6.80
2023-02-05T18:52:15.533Z,6.80
2023-02-05T18:54:44.498Z,6.90
2023-02-05T18:57:15.025Z,6.80
2023-02-05T18:59:44.567Z,6.80
2023-02-05T19:02:12.311Z,6.80
2023-02-05T19:04:41.522Z,6.80
2023-02-05T19:07:09.090Z,6.90
2023-02-05T19:09:37.873Z,6.80
2023-02-05T19:12:05.405Z,6.80
2023-02-05T19:14:34.100Z,6.80
2023-02-05T19:17:01.587Z,6.80
2023-02-05T19:19:31.192Z,6.80
2023-02-05T19:22:05.158Z,6.80
2023-02-05T19:24:33.536Z,6.80
2023-02-05T19:27:01.323Z,6.80
2023-02-05T19:29:29.196Z,6.70
2023-02-05T19:31:58.593Z,6.70
2023-02-05T19:34:27.822Z,6.70
2023-02-05T19:36:55.321Z,6.80
2023-02-05T19:39:22.907Z,6.80
2023-02-05T19:41:51.917Z,6.80
2023-02-05T19:44:19.575Z,6.80
2023-02-05T19:46:48.814Z,6.70
2023-02-05T19:49:19.513Z,6.70
2023-02-05T19:51:54.375Z,6.70
2023-02-05T19:54:22.734Z,6.70
2023-02-05T19:56:50.654Z,6.70
2023-02-05T19:59:18.347Z,6.70
2023-02-05T20:01:46.068Z,6.70
2023-02-05T20:04:17.505Z,6.70
2023-02-05T20:06:46.890Z,6.70
2023-02-05T20:09:16.259Z,6.70
2023-02-05T20:11:48.789Z,6.70
2023-02-05T20:14:17.503Z,6.60
2023-02-05T20:16:45.711Z,6.70
2023-02-05T20:19:15.905Z,6.70
2023-02-05T20:21:44.396Z,6.70
2023-02-05T20:24:12.447Z,6.80
2023-02-05T20:26:40.423Z,6.80
2023-02-05T20:29:26.980Z,6.90
2023-02-05T20:31:55.026Z,6.90
2023-02-05T20:34:25.985Z,6.90
2023-02-05T20:36:56.226Z,7.00
2023-02-05T20:39:28.648Z,6.90
2023-02-05T20:41:58.431Z,6.90
2023-02-05T20:44:28.659Z,6.90
2023-02-05T20:46:56.800Z,6.80
2023-02-05T20:49:25.951Z,6.80
2023-02-05T20:51:54.202Z,6.70
2023-02-05T20:54:22.459Z,6.60
2023-02-05T20:56:51.119Z,6.60
2023-02-05T20:59:18.533Z,6.70
2023-02-05T21:01:46.003Z,6.70
2023-02-05T21:04:13.602Z,6.70
2023-02-05T21:06:41.363Z,6.80
2023-02-05T21:09:09.570Z,6.80
2023-02-05T21:11:37.967Z,6.80
2023-02-05T21:14:06.607Z,6.90
2023-02-05T21:16:35.652Z,6.90
2023-02-05T21:19:06.792Z,6.90
2023-02-05T21:21:36.009Z,6.90
2023-02-05T21:24:06.553Z,7.00
2023-02-05T21:26:41.957Z,7.10
2023-02-05T21:29:14.682Z,7.10
2023-02-05T21:31:46.417Z,7.10
2023-02-05T21:34:17.932Z,7.20
2023-02-05T21:36:48.047Z,7.10
2023-02-05T21:39:16.341Z,7.00
2023-02-05T21:41:47.572Z,6.90
2023-02-05T21:44:15.254Z,6.80
2023-02-05T21:46:43.021Z,6.70
2023-02-05T21:49:11.404Z,6.60
2023-02-05T21:51:39.908Z,6.50
2023-02-05T21:54:07.586Z,6.30
2023-02-05T21:56:42.925Z,6.30
2023-02-05T21:59:12.081Z,6.20
2023-02-05T22:01:41.168Z,6.10
2023-02-05T22:04:12.578Z,6.10
2023-02-05T22:06:40.742Z,6.00
2023-02-05T22:09:10.490Z,6.00
2023-02-05T22:11:41.288Z,5.70
2023-02-05T22:14:09.957Z,5.60
2023-02-05T22:16:38.328Z,5.50
2023-02-05T22:19:06.791Z,5.40
2023-02-05T22:21:37.472Z,5.40
2023-02-05T22:24:06.653Z,5.30
2023-02-05T22:26:37.384Z,5.30
2023-02-05T22:29:06.751Z,5.20
2023-02-05T22:31:35.115Z,5.20
2023-02-05T22:34:02.997Z,5.20
2023-02-05T22:36:32.670Z,5.20
2023-02-05T22:39:00.347Z,5.20
2023-02-05T22:41:32.958Z,5.20
2023-02-05T22:44:01.932Z,5.10
2023-02-05T22:46:32.143Z,5.10
2023-02-05T22:49:01.294Z,4.90
2023-02-05T22:51:34.485Z,4.90
2023-02-05T22:54:02.878Z,4.90
2023-02-05T22:56:30.382Z,4.90
2023-02-05T22:58:59.317Z,5.00
2023-02-05T23:01:31.909Z,4.90
2023-02-05T23:04:01.069Z,4.80
2023-02-05T23:06:31.470Z,4.70
2023-02-05T23:09:02.519Z,4.60
2023-02-05T23:11:31.489Z,4.30
2023-02-05T23:14:00.426Z,4.40
2023-02-05T23:16:31.047Z,4.40
2023-02-05T23:19:04.777Z,4.40
2023-02-05T23:21:34.488Z,4.50
2023-02-05T23:24:02.203Z,4.50
2023-02-05T23:26:38.603Z,4.40
2023-02-05T23:29:06.684Z,4.40
2023-02-05T23:31:34.352Z,4.40
2023-02-05T23:34:02.096Z,4.40
2023-02-05T23:36:29.666Z,4.20
2023-02-05T23:38:57.199Z,4.10
2023-02-05T23:41:37.116Z,4.10
2023-02-05T23:44:22.850Z,4.20
2023-02-05T23:46:52.256Z,4.30
2023-02-05T23:49:24.013Z,4.20
2023-02-05T23:51:53.352Z,4.20
2023-02-05T23:54:21.714Z,4.10
2023-02-05T23:56:49.797Z,4.00
2023-02-05T23:59:17.627Z,4.10
